Time;durP1;ratioP1;P1;durP2;ratioP2;P2;SDS_P1;SDS_P2;PMS_P1;PMS_P2;Temp;Humidity;BMP_temperature;BMP_pressure;BME280_temperature;BME280_humidity;BME280_pressure;Samples;Min_cycle;Max_cycle;Signal;HPM_P1;HPM_P2
2022/04/04 00:00:10;;;;;;;5.07;4.57;;;;;;;;;;5097860;28;20247;-73
2022/04/04 00:02:39;;;;;;;5.77;4.53;;;;;;;;;;5097996;28;20235;-72
2022/04/04 00:05:08;;;;;;;5.63;4.60;;;;;;;;;;5092973;28;20247;-72
2022/04/04 00:07:38;;;;;;;6.03;5.20;;;;;;;;;;5099878;28;20688;-72
2022/04/04 00:10:09;;;;;;;7.17;4.70;;;;;;;;;;5094014;28;20245;-73
2022/04/04 00:12:37;;;;;;;6.27;4.73;;;;;;;;;;5092541;28;20220;-72
2022/04/04 00:15:06;;;;;;;6.13;5.03;;;;;;;;;;5093011;27;20198;-73
2022/04/04 00:17:35;;;;;;;6.33;5.17;;;;;;;;;;5102131;28;20226;-72
2022/04/04 00:20:04;;;;;;;7.57;4.70;;;;;;;;;;5093571;27;20224;-72
2022/04/04 00:22:33;;;;;;;5.63;4.77;;;;;;;;;;5103904;28;20203;-73
2022/04/04 00:25:03;;;;;;;5.40;4.87;;;;;;;;;;5113500;27;20572;-73
2022/04/04 00:27:31;;;;;;;5.40;4.47;;;;;;;;;;5093754;28;20274;-72
2022/04/04 00:29:59;;;;;;;5.23;4.73;;;;;;;;;;5092042;28;20695;-73
2022/04/04 00:32:28;;;;;;;5.40;4.90;;;;;;;;;;5092749;28;20288;-72
2022/04/04 00:35:00;;;;;;;9.93;5.10;;;;;;;;;;5092744;28;20545;-73
2022/04/04 00:37:28;;;;;;;7.83;5.17;;;;;;;;;;5104074;28;20228;-72
2022/04/04 00:39:57;;;;;;;5.60;4.80;;;;;;;;;;5092835;28;20730;-72
2022/04/04 00:42:26;;;;;;;6.53;5.10;;;;;;;;;;5091529;28;20548;-72
2022/04/04 00:44:55;;;;;;;6.03;5.37;;;;;;;;;;5107695;28;20209;-72
2022/04/04 00:47:23;;;;;;;6.03;5.40;;;;;;;;;;5100598;28;20272;-72
2022/04/04 00:49:52;;;;;;;8.27;5.60;;;;;;;;;;5111047;28;20211;-72
2022/04/04 00:52:20;;;;;;;5.97;5.27;;;;;;;;;;5096173;28;20223;-72
2022/04/04 00:54:49;;;;;;;5.90;5.30;;;;;;;;;;5146391;22;20244;-72
2022/04/04 00:57:18;;;;;;;6.40;5.40;;;;;;;;;;5061404;28;20700;-72
2022/04/04 00:59:49;;;;;;;5.77;5.17;;;;;;;;;;5049473;28;20209;-72
2022/04/04 01:02:17;;;;;;;10.23;5.60;;;;;;;;;;5050574;28;20202;-72
2022/04/04 01:04:46;;;;;;;7.20;5.67;;;;;;;;;;5051406;28;20216;-72
2022/04/04 01:07:14;;;;;;;6.90;5.37;;;;;;;;;;5050046;28;20224;-72
2022/04/04 01:09:43;;;;;;;7.97;6.00;;;;;;;;;;5051584;28;20209;-73
2022/04/04 01:12:13;;;;;;;8.73;5.90;;;;;;;;;;5050354;28;20348;-73
2022/04/04 01:14:45;;;;;;;7.23;6.13;;;;;;;;;;5050789;28;20207;-72
2022/04/04 01:17:15;;;;;;;6.97;5.97;;;;;;;;;;5048398;28;20227;-73
2022/04/04 01:19:45;;;;;;;7.07;5.97;;;;;;;;;;5050903;28;20218;-72
2022/04/04 01:22:14;;;;;;;7.10;6.20;;;;;;;;;;5052007;28;20233;-73
2022/04/04 01:24:44;;;;;;;7.43;5.63;;;;;;;;;;5049592;28;20233;-73
2022/04/04 01:27:13;;;;;;;6.33;5.73;;;;;;;;;;5049533;28;20263;-73
2022/04/04 01:29:42;;;;;;;8.00;5.57;;;;;;;;;;5050649;28;20217;-72
2022/04/04 01:32:11;;;;;;;7.23;6.00;;;;;;;;;;5048211;28;20548;-72
2022/04/04 01:34:40;;;;;;;6.80;6.10;;;;;;;;;;5050701;28;20673;-72
2022/04/04 01:37:08;;;;;;;7.50;5.97;;;;;;;;;;5050538;28;20283;-72
2022/04/04 01:39:37;;;;;;;9.57;6.17;;;;;;;;;;5049672;28;20626;-72
2022/04/04 01:42:07;;;;;;;6.77;6.07;;;;;;;;;;5052338;28;20256;-72
2022/04/04 01:44:36;;;;;;;6.57;5.97;;;;;;;;;;5054218;28;20206;-72
2022/04/04 01:47:05;;;;;;;8.57;6.20;;;;;;;;;;5040791;28;20226;-72
2022/04/04 01:49:33;;;;;;;6.70;6.00;;;;;;;;;;5047059;28;20216;-73
2022/04/04 01:52:02;;;;;;;7.40;6.10;;;;;;;;;;5049812;28;20253;-72
2022/04/04 01:54:30;;;;;;;6.50;5.90;;;;;;;;;;5048669;28;20214;-72
2022/04/04 01:56:59;;;;;;;6.70;6.00;;;;;;;;;;5052209;28;20253;-72
2022/04/04 01:59:29;;;;;;;7.63;6.43;;;;;;;;;;5053545;28;20573;-73
2022/04/04 02:01:57;;;;;;;7.60;6.10;;;;;;;;;;5053083;28;20276;-73
2022/04/04 02:04:26;;;;;;;10.53;6.60;;;;;;;;;;5053518;28;20207;-73
2022/04/04 02:06:54;;;;;;;7.47;6.57;;;;;;;;;;5051338;28;20222;-72
2022/04/04 02:09:23;;;;;;;8.20;6.57;;;;;;;;;;5051424;28;20581;-72
2022/04/04 02:11:51;;;;;;;7.50;6.67;;;;;;;;;;5053764;28;20196;-73
2022/04/04 02:14:20;;;;;;;7.33;6.50;;;;;;;;;;5052051;28;20209;-73
2022/04/04 02:16:50;;;;;;;7.43;6.57;;;;;;;;;;5051290;28;20284;-73
2022/04/04 02:19:30;;;;;;;8.03;6.83;;;;;;;;;;5054030;28;20224;-73
2022/04/04 02:21:59;;;;;;;7.30;6.60;;;;;;;;;;5113243;22;20268;-73
2022/04/04 02:24:27;;;;;;;8.87;6.93;;;;;;;;;;5093089;28;20205;-73
2022/04/04 02:26:56;;;;;;;9.40;7.10;;;;;;;;;;5092642;28;20763;-73
2022/04/04 02:29:24;;;;;;;8.27;7.40;;;;;;;;;;5092910;28;20205;-73
2022/04/04 02:31:54;;;;;;;8.20;7.30;;;;;;;;;;5093413;28;20240;-72
2022/04/04 02:34:23;;;;;;;8.77;7.93;;;;;;;;;;5093248;28;20208;-73
2022/04/04 02:36:51;;;;;;;9.40;7.80;;;;;;;;;;5093584;28;20228;-73
2022/04/04 02:39:20;;;;;;;8.73;7.47;;;;;;;;;;5094399;28;20199;-73
2022/04/04 02:41:48;;;;;;;9.17;8.07;;;;;;;;;;5092930;28;20710;-73
2022/04/04 02:44:17;;;;;;;9.87;8.20;;;;;;;;;;5090416;28;20234;-73
2022/04/04 02:46:55;;;;;;;8.87;7.97;;;;;;;;;;5094321;28;20235;-72
2022/04/04 02:49:25;;;;;;;8.77;7.87;;;;;;;;;;5094167;28;20613;-72
2022/04/04 02:51:53;;;;;;;10.47;8.90;;;;;;;;;;5092372;28;20197;-73
2022/04/04 02:54:22;;;;;;;9.23;8.20;;;;;;;;;;5092692;28;20208;-73
2022/04/04 02:56:49;;;;;;;9.63;8.63;;;;;;;;;;5092090;28;20269;-73
2022/04/04 02:59:19;;;;;;;9.97;8.60;;;;;;;;;;5094203;28;20201;-73
2022/04/04 03:01:49;;;;;;;9.50;8.50;;;;;;;;;;5090607;28;20232;-73
2022/04/04 03:04:19;;;;;;;11.03;8.67;;;;;;;;;;5090307;28;20242;-73
2022/04/04 03:06:48;;;;;;;9.37;8.47;;;;;;;;;;5092939;28;20228;-73
2022/04/04 03:09:16;;;;;;;9.67;8.53;;;;;;;;;;5094372;28;20205;-73
2022/04/04 03:11:45;;;;;;;11.13;9.17;;;;;;;;;;5089710;28;20205;-73
2022/04/04 03:14:14;;;;;;;9.63;8.63;;;;;;;;;;5091829;28;20712;-73
2022/04/04 03:16:43;;;;;;;10.80;9.07;;;;;;;;;;5093148;28;20232;-73
2022/04/04 03:19:15;;;;;;;10.07;8.93;;;;;;;;;;5093465;28;20655;-73
2022/04/04 03:21:45;;;;;;;12.03;9.60;;;;;;;;;;5094122;28;20297;-73
2022/04/04 03:24:14;;;;;;;11.87;9.73;;;;;;;;;;5092499;28;20205;-73
2022/04/04 03:26:42;;;;;;;11.77;9.70;;;;;;;;;;5091982;28;20225;-73
2022/04/04 03:29:11;;;;;;;12.43;9.77;;;;;;;;;;5093443;28;20690;-73
2022/04/04 03:31:40;;;;;;;11.67;9.77;;;;;;;;;;5091924;28;20678;-73
2022/04/04 03:34:09;;;;;;;12.00;9.83;;;;;;;;;;5090550;28;20211;-73
2022/04/04 03:36:37;;;;;;;10.97;9.67;;;;;;;;;;5089924;28;20228;-72
2022/04/04 03:39:16;;;;;;;11.40;10.20;;;;;;;;;;5091452;28;20227;-72
2022/04/04 03:41:48;;;;;;;11.60;10.33;;;;;;;;;;5089566;28;20690;-72
2022/04/04 03:44:17;;;;;;;14.47;10.70;;;;;;;;;;5118561;22;20727;-73
2022/04/04 03:47:21;;;;;;;11.73;10.17;;;;;;;;;;5085386;22;20298;-72
2022/04/04 03:49:50;;;;;;;13.70;10.50;;;;;;;;;;5092654;28;20211;-73
2022/04/04 03:52:18;;;;;;;13.07;10.03;;;;;;;;;;5073534;28;20213;-73
2022/04/04 03:54:48;;;;;;;12.73;10.50;;;;;;;;;;5067852;28;20205;-73
2022/04/04 03:57:17;;;;;;;11.73;10.40;;;;;;;;;;5073830;28;20695;-72
2022/04/04 03:59:45;;;;;;;10.60;9.50;;;;;;;;;;5070801;28;20209;-72
2022/04/04 04:02:15;;;;;;;11.60;9.57;;;;;;;;;;5071305;28;20282;-72
2022/04/04 04:04:44;;;;;;;9.70;8.63;;;;;;;;;;5070874;28;20648;-73
2022/04/04 04:07:15;;;;;;;10.10;9.00;;;;;;;;;;5072681;28;20705;-72
2022/04/04 04:09:44;;;;;;;11.20;8.63;;;;;;;;;;5069876;28;20216;-72
2022/04/04 04:12:15;;;;;;;9.97;8.83;;;;;;;;;;5068079;28;20208;-72
2022/04/04 04:14:43;;;;;;;10.00;8.87;;;;;;;;;;5072498;28;20206;-72
2022/04/04 04:17:13;;;;;;;10.80;8.50;;;;;;;;;;5071808;28;20222;-72
2022/04/04 04:22:29;;;;;;;9.30;8.17;;;;;;;;;;5071872;28;20346;-72
2022/04/04 04:24:57;;;;;;;9.00;8.10;;;;;;;;;;5071116;28;20263;-72
2022/04/04 04:27:29;;;;;;;8.97;8.07;;;;;;;;;;5071315;28;20282;-72
2022/04/04 04:29:58;;;;;;;10.00;8.20;;;;;;;;;;5071707;28;20205;-72
2022/04/04 04:32:26;;;;;;;8.60;7.17;;;;;;;;;;5070964;28;20194;-72
2022/04/04 04:34:55;;;;;;;8.07;7.23;;;;;;;;;;5071268;28;20213;-72
2022/04/04 04:37:24;;;;;;;9.90;7.90;;;;;;;;;;5069514;28;20252;-72
2022/04/04 04:39:52;;;;;;;8.43;7.27;;;;;;;;;;5071065;28;20209;-72
2022/04/04 04:42:21;;;;;;;11.53;7.73;;;;;;;;;;5068338;28;20226;-72
2022/04/04 04:44:51;;;;;;;8.87;7.27;;;;;;;;;;5070757;28;20209;-72
2022/04/04 04:47:19;;;;;;;7.80;7.00;;;;;;;;;;5070487;28;20681;-72
2022/04/04 04:49:48;;;;;;;8.20;7.40;;;;;;;;;;5069679;28;20205;-72
2022/04/04 04:52:17;;;;;;;7.70;6.57;;;;;;;;;;5071352;28;20202;-72
2022/04/04 04:54:45;;;;;;;9.63;7.67;;;;;;;;;;5070866;28;20194;-72
2022/04/04 04:57:14;;;;;;;8.50;7.63;;;;;;;;;;5069032;28;20222;-72
2022/04/04 04:59:42;;;;;;;9.50;8.20;;;;;;;;;;5071497;28;20217;-71
2022/04/04 05:02:12;;;;;;;12.60;8.63;;;;;;;;;;5069327;28;20208;-72
2022/04/04 05:04:41;;;;;;;9.33;8.40;;;;;;;;;;5069387;28;20209;-72
2022/04/04 05:07:09;;;;;;;10.33;9.00;;;;;;;;;;5068751;28;20706;-73
2022/04/04 05:09:41;;;;;;;9.87;8.70;;;;;;;;;;5064499;28;20209;-72
2022/04/04 05:12:11;;;;;;;10.50;8.87;;;;;;;;;;5067617;28;20207;-72
2022/04/04 05:14:41;;;;;;;11.07;9.87;;;;;;;;;;5063174;28;20253;-72
2022/04/04 05:17:10;;;;;;;11.80;9.80;;;;;;;;;;5068211;28;20627;-72
2022/04/04 05:19:40;;;;;;;11.03;9.73;;;;;;;;;;5071102;28;20249;-72
2022/04/04 05:22:08;;;;;;;11.60;9.13;;;;;;;;;;5074390;28;20256;-72
2022/04/04 05:24:37;;;;;;;12.30;10.07;;;;;;;;;;5075160;28;20742;-72
2022/04/04 05:27:05;;;;;;;12.63;10.20;;;;;;;;;;5076000;28;20230;-72
2022/04/04 05:29:34;;;;;;;11.70;9.67;;;;;;;;;;5073175;28;20204;-72
2022/04/04 05:32:02;;;;;;;12.00;9.73;;;;;;;;;;5074649;28;20204;-72
2022/04/04 05:34:31;;;;;;;12.03;9.47;;;;;;;;;;5075312;28;20198;-72
2022/04/04 05:37:03;;;;;;;13.03;9.33;;;;;;;;;;5075192;28;20228;-72
2022/04/04 05:39:32;;;;;;;11.17;9.33;;;;;;;;;;5075202;28;20202;-72
2022/04/04 05:42:00;;;;;;;13.93;9.80;;;;;;;;;;5075412;28;20208;-72
2022/04/04 05:44:29;;;;;;;10.00;8.90;;;;;;;;;;5075796;28;20222;-72
2022/04/04 05:46:57;;;;;;;10.67;9.17;;;;;;;;;;5078390;28;20291;-72
2022/04/04 05:49:26;;;;;;;10.53;9.13;;;;;;;;;;5076047;28;20538;-72
2022/04/04 05:51:55;;;;;;;10.83;9.13;;;;;;;;;;5075739;28;20263;-72
2022/04/04 05:54:32;;;;;;;10.17;9.17;;;;;;;;;;5075052;28;20208;-72
2022/04/04 05:57:01;;;;;;;11.80;9.10;;;;;;;;;;5075007;28;20215;-72
2022/04/04 05:59:29;;;;;;;11.93;8.87;;;;;;;;;;5071615;28;20202;-72
2022/04/04 06:01:58;;;;;;;10.90;8.83;;;;;;;;;;5073014;28;20240;-72
2022/04/04 06:04:28;;;;;;;10.80;8.90;;;;;;;;;;5065894;28;20214;-72
2022/04/04 06:06:56;;;;;;;11.50;9.07;;;;;;;;;;5074599;28;20218;-72
2022/04/04 06:09:25;;;;;;;9.47;8.30;;;;;;;;;;5075161;28;20206;-71
2022/04/04 06:11:55;;;;;;;12.17;8.40;;;;;;;;;;5075148;28;20195;-72
2022/04/04 06:14:23;;;;;;;9.33;7.47;;;;;;;;;;5075430;28;20541;-73
2022/04/04 06:16:55;;;;;;;12.33;8.53;;;;;;;;;;5087677;28;20290;-72
2022/04/04 06:19:25;;;;;;;8.83;7.93;;;;;;;;;;5094618;28;20594;-72
2022/04/04 06:21:54;;;;;;;8.87;7.73;;;;;;;;;;5091079;28;20611;-72
2022/04/04 06:24:22;;;;;;;9.97;7.37;;;;;;;;;;5074451;28;20693;-72
2022/04/04 06:26:51;;;;;;;8.33;7.13;;;;;;;;;;5074309;28;20762;-71
2022/04/04 06:29:21;;;;;;;9.67;7.27;;;;;;;;;;5075004;28;20203;-72
2022/04/04 06:31:51;;;;;;;9.07;7.00;;;;;;;;;;5075469;28;20186;-72
2022/04/04 06:34:19;;;;;;;7.80;7.10;;;;;;;;;;5133532;22;20914;-71
2022/04/04 06:36:48;;;;;;;10.57;6.97;;;;;;;;;;5090375;28;20631;-72
2022/04/04 06:39:17;;;;;;;8.00;7.13;;;;;;;;;;5075521;28;20335;-72
2022/04/04 06:41:46;;;;;;;8.97;7.10;;;;;;;;;;5085241;28;20255;-72
2022/04/04 06:44:16;;;;;;;9.30;7.33;;;;;;;;;;5092843;28;20221;-72
2022/04/04 06:46:52;;;;;;;8.73;6.70;;;;;;;;;;5084171;28;20230;-72
2022/04/04 06:49:20;;;;;;;7.80;6.53;;;;;;;;;;5076493;28;20198;-72
2022/04/04 06:51:51;;;;;;;8.73;6.30;;;;;;;;;;5084193;28;20696;-72
2022/04/04 06:54:20;;;;;;;8.27;6.63;;;;;;;;;;5076452;28;20204;-72
2022/04/04 06:56:49;;;;;;;8.63;6.10;;;;;;;;;;5086019;28;20230;-72
2022/04/04 06:59:17;;;;;;;7.10;6.10;;;;;;;;;;5092161;28;20682;-72
2022/04/04 07:01:46;;;;;;;8.03;6.30;;;;;;;;;;5085225;28;20209;-72
2022/04/04 07:04:16;;;;;;;6.87;6.17;;;;;;;;;;5092696;28;20312;-72
2022/04/04 07:06:45;;;;;;;7.17;6.30;;;;;;;;;;5087843;28;20631;-71
2022/04/04 07:09:13;;;;;;;7.10;5.80;;;;;;;;;;5093114;28;20593;-71
2022/04/04 07:11:42;;;;;;;7.33;5.73;;;;;;;;;;5086574;28;20198;-71
2022/04/04 07:14:10;;;;;;;6.53;5.50;;;;;;;;;;5081923;28;20199;-72
2022/04/04 07:16:39;;;;;;;7.93;5.83;;;;;;;;;;5083727;28;20317;-72
2022/04/04 07:19:09;;;;;;;6.97;5.70;;;;;;;;;;5093182;28;20207;-72
2022/04/04 07:21:39;;;;;;;7.10;5.70;;;;;;;;;;5081796;28;20207;-72
2022/04/04 07:24:08;;;;;;;6.63;5.60;;;;;;;;;;5075155;28;20677;-72
2022/04/04 07:26:36;;;;;;;9.17;5.90;;;;;;;;;;5081194;28;20229;-72
2022/04/04 07:29:05;;;;;;;6.20;5.50;;;;;;;;;;5075716;28;20215;-72
2022/04/04 07:31:33;;;;;;;6.30;5.63;;;;;;;;;;5085470;28;20214;-72
2022/04/04 07:34:01;;;;;;;7.20;5.93;;;;;;;;;;5092770;28;20618;-72
2022/04/04 07:36:30;;;;;;;7.13;5.53;;;;;;;;;;5084095;28;20592;-72
2022/04/04 07:39:00;;;;;;;7.70;5.90;;;;;;;;;;5072112;28;20205;-72
2022/04/04 07:41:28;;;;;;;8.20;5.57;;;;;;;;;;5082657;28;20214;-72
2022/04/04 07:43:57;;;;;;;9.73;5.87;;;;;;;;;;5072980;28;20621;-72
2022/04/04 07:46:26;;;;;;;6.83;5.30;;;;;;;;;;5075956;28;20203;-72
2022/04/04 07:48:56;;;;;;;7.13;5.43;;;;;;;;;;5073486;28;20200;-72
2022/04/04 07:51:24;;;;;;;7.77;6.03;;;;;;;;;;5078552;28;20222;-72
2022/04/04 07:53:53;;;;;;;7.37;6.40;;;;;;;;;;5072532;28;20201;-72
2022/04/04 07:56:24;;;;;;;5.73;5.10;;;;;;;;;;5076751;28;20203;-72
2022/04/04 07:58:52;;;;;;;6.17;5.57;;;;;;;;;;5080062;28;20393;-72
2022/04/04 08:01:21;;;;;;;6.60;5.37;;;;;;;;;;5086749;28;20214;-72
2022/04/04 08:06:53;;;;;;;6.13;5.50;;;;;;;;;;5139244;22;20713;-72
2022/04/04 08:09:22;;;;;;;7.97;6.13;;;;;;;;;;5053520;28;20257;-72
2022/04/04 08:11:52;;;;;;;6.50;5.80;;;;;;;;;;5053156;28;20205;-72
2022/04/04 08:14:21;;;;;;;6.57;5.87;;;;;;;;;;5053884;28;20195;-72
2022/04/04 08:16:50;;;;;;;8.77;6.13;;;;;;;;;;5053494;28;20757;-72
2022/04/04 08:19:18;;;;;;;8.97;6.40;;;;;;;;;;5059082;28;20203;-72
2022/04/04 08:21:47;;;;;;;7.50;5.73;;;;;;;;;;5073277;28;20554;-72
2022/04/04 08:24:16;;;;;;;7.30;6.50;;;;;;;;;;5073106;28;20224;-72
2022/04/04 08:26:45;;;;;;;7.50;6.20;;;;;;;;;;5073103;28;20701;-72
2022/04/04 08:29:14;;;;;;;7.60;6.87;;;;;;;;;;5073135;28;20209;-72
2022/04/04 08:31:43;;;;;;;6.90;6.30;;;;;;;;;;5073353;28;20200;-72
2022/04/04 08:34:12;;;;;;;9.07;6.90;;;;;;;;;;5073135;28;20205;-72
2022/04/04 08:36:41;;;;;;;8.23;6.67;;;;;;;;;;5072869;28;20241;-72
2022/04/04 08:39:09;;;;;;;9.17;6.90;;;;;;;;;;5072960;28;20207;-72
2022/04/04 08:41:38;;;;;;;9.30;7.10;;;;;;;;;;5073251;28;20225;-72
2022/04/04 08:44:07;;;;;;;7.87;7.07;;;;;;;;;;5072909;28;20329;-72
2022/04/04 08:46:37;;;;;;;7.77;6.90;;;;;;;;;;5073101;28;20549;-72
2022/04/04 08:49:06;;;;;;;9.20;7.37;;;;;;;;;;5071258;28;20278;-72
2022/04/04 08:51:36;;;;;;;8.13;7.33;;;;;;;;;;5070627;28;20211;-72
2022/04/04 08:54:05;;;;;;;7.60;6.90;;;;;;;;;;5071339;28;20199;-72
2022/04/04 08:56:34;;;;;;;8.87;7.27;;;;;;;;;;5072837;28;20222;-72
2022/04/04 08:59:02;;;;;;;8.73;7.37;;;;;;;;;;5072330;28;20241;-72
2022/04/04 09:01:31;;;;;;;9.63;7.77;;;;;;;;;;5071806;28;20693;-71
2022/04/04 09:04:19;;;;;;;9.07;7.77;;;;;;;;;;5072655;28;20203;-72
2022/04/04 09:06:49;;;;;;;10.60;8.20;;;;;;;;;;5072595;28;20236;-72
2022/04/04 09:09:21;;;;;;;8.43;7.10;;;;;;;;;;5073092;28;20208;-72
2022/04/04 09:12:06;;;;;;;10.37;7.80;;;;;;;;;;5072838;28;20200;-72
2022/04/04 09:14:40;;;;;;;10.97;8.40;;;;;;;;;;5072597;28;20208;-72
2022/04/04 09:17:09;;;;;;;8.80;7.90;;;;;;;;;;5052764;28;20232;-72
2022/04/04 09:19:39;;;;;;;9.43;8.37;;;;;;;;;;5052692;28;20205;-72
2022/04/04 09:22:09;;;;;;;11.07;8.73;;;;;;;;;;5052726;28;20208;-72
2022/04/04 09:24:44;;;;;;;9.40;8.03;;;;;;;;;;5052431;28;20208;-72
2022/04/04 09:27:13;;;;;;;11.53;9.00;;;;;;;;;;5052590;28;20228;-72
2022/04/04 09:29:48;;;;;;;9.77;8.43;;;;;;;;;;5053043;28;20645;-72
2022/04/04 09:32:16;;;;;;;9.40;8.30;;;;;;;;;;5052295;28;20741;-72
2022/04/04 09:34:53;;;;;;;11.40;8.77;;;;;;;;;;5052169;28;20620;-72
2022/04/04 09:37:22;;;;;;;10.03;9.03;;;;;;;;;;5055356;28;20576;-72
2022/04/04 09:39:51;;;;;;;10.73;9.60;;;;;;;;;;5072741;28;20228;-72
2022/04/04 09:42:39;;;;;;;13.27;9.77;;;;;;;;;;5072576;28;20205;-72
2022/04/04 09:45:09;;;;;;;12.20;10.30;;;;;;;;;;5072526;28;20217;-72
2022/04/04 09:47:48;;;;;;;11.70;10.50;;;;;;;;;;5072458;28;20722;-72
2022/04/04 09:50:35;;;;;;;12.27;11.07;;;;;;;;;;5072731;28;20200;-72
2022/04/04 09:53:13;;;;;;;15.67;11.53;;;;;;;;;;5072483;28;20286;-72
2022/04/04 09:55:43;;;;;;;13.40;11.63;;;;;;;;;;5072515;28;20215;-72
2022/04/04 09:58:14;;;;;;;12.13;10.93;;;;;;;;;;5071995;28;20286;-72
2022/04/04 10:00:44;;;;;;;13.20;11.80;;;;;;;;;;5072820;28;20187;-72
2022/04/04 10:03:13;;;;;;;14.23;12.77;;;;;;;;;;5075245;28;20290;-72
2022/04/04 10:05:43;;;;;;;15.10;13.20;;;;;;;;;;5075443;28;20834;-72
2022/04/04 10:08:14;;;;;;;15.17;13.67;;;;;;;;;;5075813;28;20220;-72
2022/04/04 10:10:43;;;;;;;14.77;13.27;;;;;;;;;;5075392;28;20679;-73
2022/04/04 10:13:14;;;;;;;15.07;13.57;;;;;;;;;;5075741;28;20227;-72
2022/04/04 10:15:43;;;;;;;16.20;14.47;;;;;;;;;;5075889;28;20202;-72
2022/04/04 10:18:11;;;;;;;15.47;14.03;;;;;;;;;;5075669;28;20228;-72
2022/04/04 10:20:40;;;;;;;18.03;16.27;;;;;;;;;;5075545;28;20207;-72
2022/04/04 10:23:12;;;;;;;17.47;15.87;;;;;;;;;;5075471;28;20203;-73
2022/04/04 10:25:42;;;;;;;17.67;15.97;;;;;;;;;;5075524;28;20630;-72
2022/04/04 10:28:11;;;;;;;17.60;16.00;;;;;;;;;;5075682;28;20222;-72
2022/04/04 10:30:40;;;;;;;18.77;16.87;;;;;;;;;;5075377;28;20202;-73
2022/04/04 10:33:18;;;;;;;18.30;16.60;;;;;;;;;;5075490;28;20206;-74
2022/04/04 10:35:59;;;;;;;20.43;18.43;;;;;;;;;;5083143;28;20205;-73
2022/04/04 10:38:30;;;;;;;19.40;17.50;;;;;;;;;;5091878;28;20269;-73
2022/04/04 10:41:02;;;;;;;20.77;18.67;;;;;;;;;;5075699;28;20210;-72
2022/04/04 10:43:33;;;;;;;19.20;17.40;;;;;;;;;;5075213;28;20210;-72
2022/04/04 10:46:02;;;;;;;19.93;17.97;;;;;;;;;;5075057;28;20222;-72
2022/04/04 10:48:32;;;;;;;18.57;16.77;;;;;;;;;;5075325;28;20245;-73
2022/04/04 10:51:04;;;;;;;18.43;16.73;;;;;;;;;;5074806;28;20207;-73
2022/04/04 10:53:43;;;;;;;19.43;17.50;;;;;;;;;;5074719;28;20195;-73
2022/04/04 10:56:18;;;;;;;17.23;15.50;;;;;;;;;;5074774;28;20198;-74
2022/04/04 10:58:46;;;;;;;17.23;15.43;;;;;;;;;;5074802;28;20209;-74
2022/04/04 11:01:16;;;;;;;16.97;15.33;;;;;;;;;;5075097;28;20208;-73
2022/04/04 11:03:58;;;;;;;16.83;15.33;;;;;;;;;;5074752;28;20669;-73
2022/04/04 11:09:32;;;;;;;17.53;15.93;;;;;;;;;;5075085;28;20195;-73
2022/04/04 11:12:15;;;;;;;16.30;14.80;;;;;;;;;;5074116;28;20714;-74
2022/04/04 11:14:54;;;;;;;16.27;14.87;;;;;;;;;;5074586;28;20203;-73
2022/04/04 11:17:30;;;;;;;18.13;16.33;;;;;;;;;;5074473;28;20219;-74
2022/04/04 11:20:04;;;;;;;18.87;17.00;;;;;;;;;;5075103;28;20257;-74
2022/04/04 11:22:34;;;;;;;18.47;16.57;;;;;;;;;;5074303;28;20202;-73
2022/04/04 11:25:04;;;;;;;18.60;16.80;;;;;;;;;;5075036;28;20183;-74
2022/04/04 11:27:35;;;;;;;20.07;18.17;;;;;;;;;;5074269;28;20231;-73
2022/04/04 11:30:06;;;;;;;21.30;19.13;;;;;;;;;;5074195;28;20207;-74
2022/04/04 11:32:40;;;;;;;20.23;18.33;;;;;;;;;;5074173;28;20728;-74
2022/04/04 11:35:14;;;;;;;21.37;19.10;;;;;;;;;;5074150;28;20240;-74
2022/04/04 11:37:46;;;;;;;21.57;19.53;;;;;;;;;;5073620;28;20548;-74
2022/04/04 11:40:15;;;;;;;21.60;19.53;;;;;;;;;;5074633;28;20230;-73
2022/04/04 11:42:49;;;;;;;19.07;17.13;;;;;;;;;;5074255;28;20260;-73
2022/04/04 11:45:19;;;;;;;20.00;18.20;;;;;;;;;;5073809;28;20203;-73
2022/04/04 11:47:54;;;;;;;18.30;16.53;;;;;;;;;;5073900;28;20226;-74
2022/04/04 11:50:26;;;;;;;18.67;16.87;;;;;;;;;;5073961;28;20209;-75
2022/04/04 11:52:55;;;;;;;17.03;15.43;;;;;;;;;;5073792;28;20207;-74
2022/04/04 11:55:27;;;;;;;17.07;15.43;;;;;;;;;;5073803;28;20204;-74
2022/04/04 11:57:58;;;;;;;17.17;15.53;;;;;;;;;;5071311;28;20215;-74
2022/04/04 12:00:28;;;;;;;15.53;14.03;;;;;;;;;;5073425;28;20631;-73
2022/04/04 12:02:56;;;;;;;15.53;14.03;;;;;;;;;;5069983;28;20200;-72
2022/04/04 12:05:26;;;;;;;15.03;13.63;;;;;;;;;;5075348;28;20206;-74
2022/04/04 12:07:55;;;;;;;15.47;14.00;;;;;;;;;;5065416;28;20344;-73
2022/04/04 12:10:29;;;;;;;14.67;13.37;;;;;;;;;;5070096;28;20202;-73
2022/04/04 12:12:59;;;;;;;16.40;14.63;;;;;;;;;;5072340;28;20208;-74
2022/04/04 12:15:29;;;;;;;16.50;15.00;;;;;;;;;;5070068;28;20610;-74
2022/04/04 12:17:58;;;;;;;15.43;13.93;;;;;;;;;;5070788;28;20603;-72
2022/04/04 12:20:27;;;;;;;15.47;14.07;;;;;;;;;;5086067;28;20234;-72
2022/04/04 12:25:43;;;;;;;16.37;14.73;;;;;;;;;;5070224;28;20204;-73
2022/04/04 12:28:22;;;;;;;15.50;14.00;;;;;;;;;;5070433;28;20225;-74
2022/04/04 12:30:50;;;;;;;15.00;13.60;;;;;;;;;;5068824;28;20572;-73
2022/04/04 12:33:19;;;;;;;16.90;15.30;;;;;;;;;;5071853;28;20595;-73
2022/04/04 12:35:49;;;;;;;16.77;15.17;;;;;;;;;;5067792;28;20647;-73
2022/04/04 12:38:25;;;;;;;16.73;15.13;;;;;;;;;;5072682;28;20215;-72
2022/04/04 12:41:04;;;;;;;15.10;13.73;;;;;;;;;;5091729;28;20240;-73
2022/04/04 12:43:34;;;;;;;14.77;13.37;;;;;;;;;;5072665;28;20654;-73
2022/04/04 12:46:04;;;;;;;14.80;12.67;;;;;;;;;;5066518;28;20266;-74
2022/04/04 12:48:34;;;;;;;14.30;13.00;;;;;;;;;;5076620;28;20563;-73
2022/04/04 12:51:02;;;;;;;15.07;13.67;;;;;;;;;;5083114;28;20661;-73
2022/04/04 12:53:30;;;;;;;14.27;12.97;;;;;;;;;;5070906;28;20208;-73
2022/04/04 12:56:06;;;;;;;14.10;12.80;;;;;;;;;;5065049;28;20221;-72
2022/04/04 12:58:36;;;;;;;13.53;12.20;;;;;;;;;;5066336;28;20203;-73
2022/04/04 13:01:11;;;;;;;13.93;12.60;;;;;;;;;;5063362;28;20238;-73
2022/04/04 13:03:50;;;;;;;14.17;12.87;;;;;;;;;;5069372;28;20223;-74
2022/04/04 13:06:19;;;;;;;14.40;13.10;;;;;;;;;;5071838;28;20208;-73
2022/04/04 13:08:55;;;;;;;13.80;12.57;;;;;;;;;;5069251;28;20706;-73
2022/04/04 13:11:24;;;;;;;14.57;13.17;;;;;;;;;;5072706;28;20202;-73
2022/04/04 13:14:04;;;;;;;14.60;13.20;;;;;;;;;;5068250;28;20249;-73
2022/04/04 13:16:34;;;;;;;14.77;13.33;;;;;;;;;;5070295;28;20215;-74
2022/04/04 13:19:05;;;;;;;14.20;12.90;;;;;;;;;;5072664;28;20292;-73
2022/04/04 13:21:33;;;;;;;14.20;12.90;;;;;;;;;;5070453;28;20281;-75
2022/04/04 13:24:02;;;;;;;13.60;12.40;;;;;;;;;;5071824;28;20205;-74
2022/04/04 13:26:30;;;;;;;14.03;12.73;;;;;;;;;;5070850;28;20290;-73
2022/04/04 13:29:01;;;;;;;13.90;12.60;;;;;;;;;;5072026;28;20568;-73
2022/04/04 13:31:29;;;;;;;13.87;12.57;;;;;;;;;;5072036;28;20218;-73
2022/04/04 13:33:58;;;;;;;14.23;12.93;;;;;;;;;;5067345;28;20585;-73
2022/04/04 13:36:27;;;;;;;13.80;11.67;;;;;;;;;;5070764;28;20568;-74
2022/04/04 13:38:56;;;;;;;13.40;12.10;;;;;;;;;;5075885;28;20553;-74
2022/04/04 13:41:28;;;;;;;13.37;12.07;;;;;;;;;;5076944;28;20253;-74
2022/04/04 13:43:57;;;;;;;12.93;11.63;;;;;;;;;;5074950;28;20255;-73
2022/04/04 13:46:28;;;;;;;13.93;12.47;;;;;;;;;;5079856;28;20672;-74
2022/04/04 13:49:00;;;;;;;13.37;12.10;;;;;;;;;;5078948;28;20810;-74
2022/04/04 13:51:29;;;;;;;13.50;12.13;;;;;;;;;;5078077;28;20204;-75
2022/04/04 13:54:00;;;;;;;13.37;12.13;;;;;;;;;;5085237;28;20228;-74
2022/04/04 13:56:29;;;;;;;13.17;11.97;;;;;;;;;;5080800;28;20222;-74
2022/04/04 13:58:58;;;;;;;13.23;11.93;;;;;;;;;;5088828;28;20196;-74
2022/04/04 14:01:28;;;;;;;13.20;11.90;;;;;;;;;;5081791;28;20292;-75
2022/04/04 14:03:58;;;;;;;12.13;11.03;;;;;;;;;;5086737;28;20185;-74
2022/04/04 14:06:27;;;;;;;13.93;12.63;;;;;;;;;;5081415;28;20211;-74
2022/04/04 14:08:55;;;;;;;13.53;12.33;;;;;;;;;;5075218;28;20222;-75
2022/04/04 14:11:24;;;;;;;12.90;11.70;;;;;;;;;;5069460;28;20204;-74
2022/04/04 14:13:52;;;;;;;12.67;11.37;;;;;;;;;;5074785;28;20284;-73
2022/04/04 14:16:22;;;;;;;12.70;11.50;;;;;;;;;;5071600;28;20722;-73
2022/04/04 14:18:52;;;;;;;11.93;10.83;;;;;;;;;;5070887;28;20202;-75
2022/04/04 14:21:21;;;;;;;11.10;10.10;;;;;;;;;;5074941;28;20208;-75
2022/04/04 14:23:50;;;;;;;11.83;10.73;;;;;;;;;;5073598;28;20266;-74
2022/04/04 14:26:19;;;;;;;11.50;10.47;;;;;;;;;;5064672;28;20292;-74
2022/04/04 14:28:48;;;;;;;11.70;10.60;;;;;;;;;;5072815;28;20305;-74
2022/04/04 14:31:16;;;;;;;11.53;10.53;;;;;;;;;;5073976;28;20259;-74
2022/04/04 14:33:45;;;;;;;11.80;10.73;;;;;;;;;;5068614;28;20665;-73
2022/04/04 14:36:15;;;;;;;11.20;10.20;;;;;;;;;;5074612;28;20209;-73
2022/04/04 14:38:47;;;;;;;11.20;10.20;;;;;;;;;;5071383;28;20205;-73
2022/04/04 14:41:15;;;;;;;11.27;10.27;;;;;;;;;;5074521;28;20201;-74
2022/04/04 14:43:44;;;;;;;11.17;10.27;;;;;;;;;;5074224;28;20201;-74
2022/04/04 14:46:12;;;;;;;10.07;9.17;;;;;;;;;;5075174;28;20210;-74
2022/04/04 14:48:44;;;;;;;11.20;10.20;;;;;;;;;;5072157;28;20261;-76
2022/04/04 14:51:13;;;;;;;11.30;10.20;;;;;;;;;;5072667;28;20209;-75
2022/04/04 14:53:44;;;;;;;11.10;10.10;;;;;;;;;;5073157;28;20580;-76
2022/04/04 14:56:14;;;;;;;10.70;9.70;;;;;;;;;;5070774;28;21863;-76
2022/04/04 14:58:43;;;;;;;11.03;10.03;;;;;;;;;;5069463;28;20197;-73